Bluefield, West Virginia
Current Conditions -  °F | °C
As of 6:23 AM on Wednesday 26 Nov 2014 (Local Time) from KBLF Reporting Station
Light Snow Light Snow  
Wind Chill: 35°   Ceiling: 300
Heat Index: 35°   Visibility: 1mi
Dew Point: 32°   Wind: 3mph
Humidity: 89%   Direction: 40°NE
Pressure: 29.97"   Gusts: NA
Location:  37.27°N, 81.22°W
Report Text: KBLF 261123Z AUTO 04003KT 1SM -SN BR VV003 02/00 A2997 RMK AO2 P0005 T00170000
Loading
Personal Weather Stations






























Interactive Weather Map New forecast layout! Learn more

10-Day Weather Forecast

Advertisements
Track Severe Weather on mobile